Time;durP1;ratioP1;P1;durP2;ratioP2;P2;SDS_P1;SDS_P2;PMS_P1;PMS_P2;Temp;Humidity;BMP_temperature;BMP_pressure;BME280_temperature;BME280_humidity;BME280_pressure;Samples;Min_cycle;Max_cycle;Signal;HPM_P1;HPM_P2
2021/10/27 00:01:25;;;;;;;0.90;0.60;;;19.70;40.30;20.00;94683.00;;;;10492086;28;45192;-61
2021/10/27 00:06:27;;;;;;;1.48;0.60;;;19.70;40.30;20.00;94683.00;;;;10475194;28;47171;-59
2021/10/27 00:11:27;;;;;;;1.50;0.50;;;19.70;40.30;20.00;94689.00;;;;10475097;28;46479;-60
2021/10/27 00:16:29;;;;;;;0.40;0.40;;;19.70;40.20;20.00;94698.00;;;;10490736;28;45195;-60
2021/10/27 00:21:30;;;;;;;0.60;0.50;;;19.70;40.40;20.00;94703.00;;;;10490554;28;46526;-60
2021/10/27 00:26:30;;;;;;;0.55;0.40;;;19.70;40.20;20.00;94695.00;;;;10490181;28;45266;-58
2021/10/27 00:31:31;;;;;;;0.73;0.40;;;19.70;40.20;20.00;94694.00;;;;10475713;28;45257;-59
2021/10/27 00:36:32;;;;;;;0.50;0.40;;;19.70;40.30;20.00;94688.00;;;;10473109;28;47923;-60
2021/10/27 00:41:32;;;;;;;0.43;0.40;;;19.70;40.20;20.00;94689.00;;;;10496987;27;46510;-60
2021/10/27 00:46:33;;;;;;;0.50;0.30;;;19.70;40.20;20.00;94675.00;;;;10481780;28;45680;-59
2021/10/27 00:51:33;;;;;;;0.40;0.30;;;19.70;40.10;20.00;94677.00;;;;10481580;28;45643;-59
2021/10/27 00:56:35;;;;;;;0.40;0.40;;;19.70;40.20;20.00;94664.00;;;;10454982;28;45667;-60
2021/10/27 01:01:36;;;;;;;0.75;0.50;;;19.70;40.90;19.90;94685.00;;;;10417110;28;46937;-59
2021/10/27 01:06:37;;;;;;;0.63;0.47;;;19.60;40.10;19.90;94681.00;;;;10437542;28;46032;-59
2021/10/27 01:11:40;;;;;;;0.63;0.38;;;19.70;40.10;20.00;94684.00;;;;10422224;28;48402;-59
2021/10/27 01:16:41;;;;;;;0.20;0.20;;;19.70;40.10;20.00;94690.00;;;;10421582;28;47085;-59
2021/10/27 01:21:41;;;;;;;0.90;0.40;;;19.60;40.00;19.90;94673.00;;;;10438637;28;45468;-59
2021/10/27 01:26:42;;;;;;;0.68;0.30;;;19.60;40.00;19.90;94664.00;;;;10438308;28;46705;-60
2021/10/27 01:31:43;;;;;;;0.30;0.30;;;19.60;40.10;19.90;94671.00;;;;10437556;28;46290;-59
2021/10/27 01:36:43;;;;;;;0.57;0.30;;;19.60;40.00;19.90;94660.00;;;;10438817;28;45175;-59
2021/10/27 01:41:44;;;;;;;0.90;0.43;;;19.60;40.00;19.90;94668.00;;;;10437807;28;46396;-59
2021/10/27 01:46:45;;;;;;;0.30;0.30;;;19.60;40.00;19.90;94674.00;;;;10420332;28;48198;-59
2021/10/27 01:51:47;;;;;;;0.43;0.30;;;19.60;40.00;19.90;94661.00;;;;10436953;28;45719;-59
2021/10/27 01:56:47;;;;;;;0.40;0.25;;;19.60;40.00;19.90;94649.00;;;;10420257;28;47160;-59
2021/10/27 02:01:51;;;;;;;0.60;0.30;;;19.60;40.00;19.90;94643.00;;;;10436906;28;47207;-59
2021/10/27 02:06:52;;;;;;;0.55;0.20;;;19.60;40.00;19.90;94622.00;;;;10436752;28;46585;-60
2021/10/27 02:11:53;;;;;;;0.57;0.35;;;19.60;39.90;19.90;94647.00;;;;10437667;28;46335;-60
2021/10/27 02:16:54;;;;;;;0.40;0.38;;;19.60;40.00;19.90;94632.00;;;;10436255;28;45302;-58
2021/10/27 02:21:54;;;;;;;1.13;0.40;;;19.60;39.90;19.90;94642.00;;;;10419260;28;46894;-61
2021/10/27 02:26:55;;;;;;;1.23;0.25;;;19.60;39.90;19.90;94631.00;;;;10435311;28;46760;-60
2021/10/27 02:31:56;;;;;;;1.48;0.40;;;19.60;39.90;19.90;94625.00;;;;10435344;28;46499;-60
2021/10/27 02:36:57;;;;;;;0.32;0.25;;;19.60;39.80;19.90;94628.00;;;;10435485;28;45603;-59
2021/10/27 02:41:57;;;;;;;0.93;0.47;;;19.60;39.90;19.90;94624.00;;;;10436186;28;45581;-59
2021/10/27 02:46:58;;;;;;;0.88;0.30;;;19.60;39.80;19.90;94623.00;;;;10435418;28;45684;-60
2021/10/27 02:51:59;;;;;;;0.70;0.38;;;19.60;39.80;19.90;94628.00;;;;10477741;28;45247;-60
2021/10/27 02:57:00;;;;;;;0.30;0.30;;;19.60;39.90;19.90;94623.00;;;;10451578;28;45616;-60
2021/10/27 03:02:01;;;;;;;0.30;0.30;;;19.60;39.80;19.90;94630.00;;;;10416289;28;46948;-60
2021/10/27 03:07:01;;;;;;;0.43;0.20;;;19.60;39.90;19.90;94632.00;;;;10434363;28;45341;-60
2021/10/27 03:12:03;;;;;;;0.88;0.60;;;19.60;39.80;19.90;94620.00;;;;10417982;28;47485;-59
2021/10/27 03:17:04;;;;;;;0.40;0.40;;;19.60;39.80;19.90;94626.00;;;;10433456;28;45961;-59
2021/10/27 03:22:05;;;;;;;0.73;0.30;;;19.60;39.80;19.90;94628.00;;;;10417532;28;46940;-60
2021/10/27 03:27:06;;;;;;;0.55;0.35;;;19.60;39.70;19.90;94628.00;;;;10417407;28;48171;-59
2021/10/27 03:32:08;;;;;;;0.30;0.22;;;19.60;39.70;19.90;94637.00;;;;10434412;28;45285;-59
2021/10/27 03:37:09;;;;;;;0.25;0.25;;;19.60;39.80;19.90;94642.00;;;;10434113;28;45859;-59
2021/10/27 03:42:10;;;;;;;0.95;0.47;;;19.60;39.80;19.90;94637.00;;;;10434261;28;45216;-60
2021/10/27 03:47:11;;;;;;;0.60;0.40;;;19.50;39.70;19.90;94629.00;;;;10435394;28;45422;-59
2021/10/27 03:52:12;;;;;;;0.32;0.25;;;19.60;39.70;19.90;94634.00;;;;10476979;28;46073;-59
2021/10/27 03:57:12;;;;;;;0.80;0.30;;;19.60;39.90;19.90;94643.00;;;;10439972;28;45222;-60
2021/10/27 04:02:13;;;;;;;0.60;0.40;;;19.60;39.70;19.80;94630.00;;;;10433612;28;46532;-59
2021/10/27 04:07:14;;;;;;;0.30;0.30;;;19.50;39.70;19.90;94648.00;;;;10432869;28;45397;-59
2021/10/27 04:12:14;;;;;;;0.30;0.30;;;19.50;39.60;19.90;94635.00;;;;10434550;28;45295;-59
2021/10/27 04:17:15;;;;;;;0.52;0.40;;;19.60;39.70;19.90;94634.00;;;;10432321;28;47207;-60
2021/10/27 04:22:16;;;;;;;0.95;0.30;;;19.60;39.70;19.90;94644.00;;;;10416118;28;47153;-60
2021/10/27 04:27:17;;;;;;;0.40;0.30;;;19.60;39.70;19.90;94655.00;;;;10431756;28;47286;-60
2021/10/27 04:32:18;;;;;;;0.60;0.32;;;19.50;39.60;19.80;94646.00;;;;10434094;28;45355;-62
2021/10/27 04:37:19;;;;;;;0.38;0.30;;;19.60;40.30;19.90;94645.00;;;;10433272;28;45313;-63
2021/10/27 04:42:19;;;;;;;0.38;0.30;;;19.50;39.60;19.90;94661.00;;;;10432353;28;45388;-62
2021/10/27 04:47:20;;;;;;;0.50;0.30;;;19.60;39.70;19.80;94651.00;;;;10434062;28;46523;-62
2021/10/27 04:52:21;;;;;;;0.38;0.30;;;19.50;39.60;19.80;94662.00;;;;10473382;28;46800;-62
2021/10/27 04:57:21;;;;;;;0.68;0.28;;;19.50;39.60;19.80;94659.00;;;;10474790;28;45276;-62
2021/10/27 05:02:22;;;;;;;0.65;0.40;;;19.60;39.60;19.80;94672.00;;;;10474812;28;45505;-62
2021/10/27 05:07:24;;;;;;;0.55;0.40;;;19.50;39.70;19.80;94678.00;;;;10474188;28;45266;-63
2021/10/27 05:12:26;;;;;;;0.65;0.40;;;19.60;39.60;19.80;94682.00;;;;10474907;28;45462;-61
2021/10/27 05:17:27;;;;;;;0.43;0.30;;;19.50;39.50;19.80;94665.00;;;;10472304;28;46380;-62
2021/10/27 05:22:27;;;;;;;0.40;0.30;;;19.50;39.50;19.80;94664.00;;;;10474202;28;46596;-63
2021/10/27 05:27:30;;;;;;;0.45;0.30;;;19.50;39.50;19.80;94678.00;;;;10476051;28;45412;-62
2021/10/27 05:32:32;;;;;;;0.63;0.30;;;19.50;39.50;19.80;94679.00;;;;10478996;28;47368;-62
2021/10/27 05:37:32;;;;;;;0.57;0.35;;;19.50;39.50;19.80;94681.00;;;;10479054;28;45486;-62
2021/10/27 05:42:34;;;;;;;0.60;0.20;;;19.60;39.50;19.80;94666.00;;;;10478836;28;45543;-63
2021/10/27 05:47:37;;;;;;;0.75;0.32;;;19.50;39.50;19.80;94684.00;;;;10480020;28;45611;-62
2021/10/27 06:02:39;;;;;;;0.50;0.30;;;19.50;39.50;19.80;94671.00;;;;10479073;28;45200;-61
2021/10/27 06:07:39;;;;;;;0.35;0.20;;;19.50;39.40;19.80;94693.00;;;;10479299;28;45092;-62
2021/10/27 06:12:40;;;;;;;0.93;0.40;;;19.50;39.50;19.80;94704.00;;;;10480541;28;45370;-62
2021/10/27 06:17:41;;;;;;;0.80;0.30;;;19.50;39.50;19.80;94699.00;;;;10477247;28;45169;-62
2021/10/27 06:22:43;;;;;;;0.45;0.30;;;19.50;39.50;19.80;94684.00;;;;10477843;28;47506;-62
2021/10/27 06:27:49;;;;;;;0.22;0.22;;;19.50;39.50;19.80;94694.00;;;;10477549;28;47934;-62
2021/10/27 06:33:01;;;;;;;0.57;0.20;;;19.50;39.50;19.80;94696.00;;;;10478836;28;47339;-62
2021/10/27 06:38:21;;;;;;;0.68;0.30;;;19.50;39.50;19.80;94684.00;;;;10477277;28;48276;-62
2021/10/27 06:48:41;;;;;;;0.90;0.50;;;19.50;39.50;19.80;94706.00;;;;10462620;28;45171;-62
2021/10/27 06:53:43;;;;;;;1.23;0.57;;;19.50;39.50;19.80;94702.00;;;;10435718;28;45554;-61
2021/10/27 06:58:48;;;;;;;0.80;0.50;;;19.50;39.60;19.80;94700.00;;;;10434841;28;46430;-63
2021/10/27 07:19:31;;;;;;;1.60;0.80;;;19.60;39.50;19.80;94713.00;;;;10435536;28;45199;-63
2021/10/27 07:24:33;;;;;;;2.00;0.95;;;19.60;39.50;19.80;94717.00;;;;10434360;28;45427;-63
2021/10/27 07:29:34;;;;;;;2.42;1.13;;;19.60;39.50;19.80;94711.00;;;;10432054;28;47066;-63
2021/10/27 07:34:38;;;;;;;3.88;1.40;;;19.60;39.40;19.90;94702.00;;;;10433721;28;45493;-62
2021/10/27 07:44:58;;;;;;;4.22;1.88;;;19.60;39.30;19.90;94705.00;;;;10433160;28;45251;-63
2021/10/27 07:49:59;;;;;;;3.35;1.60;;;19.60;39.30;19.90;94712.00;;;;10458319;28;45838;-63
2021/10/27 07:54:59;;;;;;;5.57;2.03;;;19.60;39.30;19.90;94712.00;;;;10456252;28;46328;-62
2021/10/27 08:00:00;;;;;;;4.03;1.70;;;19.60;39.30;19.90;94690.00;;;;10432180;28;46326;-63
2021/10/27 08:05:02;;;;;;;3.85;1.80;;;19.60;39.20;19.90;94717.00;;;;10432344;28;45472;-62
2021/10/27 08:10:04;;;;;;;4.18;2.10;;;19.60;39.30;19.90;94701.00;;;;10431730;28;47208;-63
2021/10/27 08:15:05;;;;;;;3.10;1.50;;;19.60;39.20;19.90;94720.00;;;;10431803;28;47179;-62
2021/10/27 08:20:09;;;;;;;4.40;1.83;;;19.60;39.30;19.90;94703.00;;;;10432873;28;46157;-62
2021/10/27 08:25:19;;;;;;;3.17;1.50;;;19.60;39.30;19.90;94725.00;;;;10431923;28;45942;-63
2021/10/27 08:30:22;;;;;;;4.00;1.70;;;19.60;39.30;19.90;94721.00;;;;10431941;28;45240;-62
2021/10/27 08:35:28;;;;;;;3.30;1.40;;;19.60;39.20;19.90;94701.00;;;;10431433;28;47482;-62
2021/10/27 08:40:30;;;;;;;2.58;1.20;;;19.60;39.30;19.90;94724.00;;;;10432881;28;45234;-62
2021/10/27 08:45:31;;;;;;;3.33;1.42;;;19.60;39.20;19.90;94718.00;;;;10431666;28;47039;-62
2021/10/27 08:50:32;;;;;;;3.97;1.50;;;19.60;39.20;19.90;94700.00;;;;10443285;28;46998;-63
2021/10/27 08:55:34;;;;;;;3.83;1.65;;;19.60;39.20;19.90;94708.00;;;;10449674;28;47191;-63
2021/10/27 09:00:42;;;;;;;4.07;1.85;;;19.60;39.30;19.90;94710.00;;;;10432324;28;46050;-62
2021/10/27 09:06:01;;;;;;;3.97;1.20;;;19.60;39.30;19.90;94702.00;;;;10438268;28;46390;-63
2021/10/27 09:16:46;;;;;;;2.70;1.48;;;19.60;39.30;19.90;94691.00;;;;10438940;28;45625;-60
2021/10/27 09:43:39;;;;;;;2.97;1.30;;;19.60;39.40;19.90;94674.00;;;;10415266;28;45451;-61
2021/10/27 10:05:04;;;;;;;1.40;0.90;;;19.60;39.50;19.90;94683.00;;;;10478550;28;45223;-60
2021/10/27 10:10:08;;;;;;;2.08;1.10;;;19.60;39.50;19.90;94694.00;;;;10477393;28;47380;-60
2021/10/27 10:15:10;;;;;;;2.38;1.13;;;19.60;39.50;19.90;94674.00;;;;10476988;28;45262;-60
2021/10/27 10:20:13;;;;;;;2.30;1.08;;;19.60;39.50;19.90;94656.00;;;;10477286;28;45329;-61
2021/10/27 10:25:17;;;;;;;1.95;0.90;;;19.60;39.50;19.90;94660.00;;;;10473404;28;45315;-61
2021/10/27 10:30:33;;;;;;;1.85;0.90;;;19.60;39.50;19.90;94676.00;;;;10474607;28;46394;-61
2021/10/27 10:36:26;;;;;;;2.57;1.00;;;19.70;39.60;20.00;94663.00;;;;10477199;28;46132;-60
2021/10/27 10:41:46;;;;;;;2.35;1.25;;;19.70;39.60;20.00;94659.00;;;;10474542;28;46295;-60
2021/10/27 11:03:08;;;;;;;2.00;1.08;;;19.70;39.60;20.00;94651.00;;;;10477861;28;45092;-59
2021/10/27 11:25:20;;;;;;;1.92;1.10;;;19.70;39.60;20.00;94624.00;;;;10473578;28;45740;-61
2021/10/27 11:41:20;;;;;;;1.20;0.80;;;19.70;40.40;20.00;94595.00;;;;10491095;28;45133;-60
2021/10/27 11:46:28;;;;;;;2.72;1.05;;;19.80;39.80;20.10;94592.00;;;;10490343;28;45124;-59
2021/10/27 11:51:28;;;;;;;2.88;1.00;;;19.80;40.10;20.10;94571.00;;;;10491996;28;45276;-60
2021/10/27 11:56:32;;;;;;;2.05;0.70;;;19.80;40.00;20.10;94567.00;;;;10491054;28;46578;-60
2021/10/27 12:01:35;;;;;;;2.25;1.00;;;19.80;39.90;20.10;94576.00;;;;10474331;28;47309;-60
2021/10/27 12:06:44;;;;;;;3.47;0.93;;;19.80;40.00;20.10;94548.00;;;;10490653;28;45851;-60
2021/10/27 12:12:06;;;;;;;3.72;1.15;;;19.80;40.00;20.20;94549.00;;;;10489090;28;45444;-60
2021/10/27 12:17:36;;;;;;;1.42;0.77;;;19.80;39.90;20.20;94542.00;;;;10473446;28;47020;-60
2021/10/27 12:22:37;;;;;;;1.80;0.90;;;19.80;40.00;20.10;94538.00;;;;10473693;28;47044;-60
2021/10/27 12:27:42;;;;;;;1.52;0.85;;;19.80;39.90;20.20;94550.00;;;;10490030;28;45560;-60
2021/10/27 12:32:56;;;;;;;1.42;0.80;;;19.90;40.00;20.20;94536.00;;;;10490337;28;46420;-60
2021/10/27 12:38:15;;;;;;;1.83;1.00;;;19.90;40.00;20.20;94533.00;;;;10496880;27;46550;-60
2021/10/27 12:43:19;;;;;;;1.67;1.05;;;19.90;40.10;20.20;94527.00;;;;10480196;28;47050;-60
2021/10/27 12:48:24;;;;;;;1.83;0.73;;;19.90;40.10;20.10;94525.00;;;;10479884;28;45294;-61
2021/10/27 12:53:33;;;;;;;1.42;0.90;;;19.90;40.10;20.10;94528.00;;;;10475206;28;48349;-60
2021/10/27 12:58:40;;;;;;;2.10;0.90;;;19.80;40.10;20.10;94515.00;;;;10439396;28;45571;-60
2021/10/27 13:04:03;;;;;;;2.47;0.80;;;19.90;40.10;20.10;94523.00;;;;10439452;28;46369;-60
2021/10/27 13:19:27;;;;;;;1.52;0.90;;;19.80;40.10;20.10;94505.00;;;;10437359;28;45422;-61
2021/10/27 13:29:36;;;;;;;2.20;1.10;;;19.80;40.10;20.00;94496.00;;;;10437261;28;46255;-61
2021/10/27 13:34:37;;;;;;;2.97;1.05;;;19.80;40.20;20.00;94494.00;;;;10438477;28;45448;-60
2021/10/27 13:39:38;;;;;;;2.20;1.30;;;19.70;40.20;20.00;94474.00;;;;10435616;28;45192;-60
2021/10/27 14:06:02;;;;;;;1.00;0.77;;;19.80;40.50;20.10;94463.00;;;;10436274;28;45555;-60
2021/10/27 14:11:12;;;;;;;1.38;1.02;;;19.70;40.50;20.00;94463.00;;;;10436296;28;45189;-59
2021/10/27 14:50:22;;;;;;;1.73;1.00;;;19.80;40.80;20.00;94475.00;;;;10445153;28;45374;-61
2021/10/27 15:20:13;;;;;;;2.38;0.95;;;19.80;40.90;20.00;94463.00;;;;10434829;28;45243;-60
2021/10/27 15:25:46;;;;;;;1.58;1.00;;;19.80;40.90;20.00;94455.00;;;;10433448;28;46053;-60
2021/10/27 15:37:00;;;;;;;1.50;0.95;;;19.70;40.80;20.00;94460.00;;;;10421078;28;45322;-60
2021/10/27 15:42:01;;;;;;;1.60;1.00;;;19.70;40.90;20.00;94453.00;;;;10431083;28;45239;-60
2021/10/27 15:52:23;;;;;;;2.30;1.13;;;19.80;40.90;20.00;94456.00;;;;10474558;28;45110;-60
2021/10/27 15:57:24;;;;;;;1.38;0.90;;;19.80;40.90;20.00;94449.00;;;;10430486;28;47173;-60
2021/10/27 16:02:25;;;;;;;2.38;1.00;;;19.70;40.90;20.10;94442.00;;;;10428421;28;46229;-66
2021/10/27 16:07:29;;;;;;;2.47;0.80;;;19.80;41.10;20.10;94453.00;;;;10431699;28;47581;-61
2021/10/27 16:12:30;;;;;;;2.25;0.85;;;19.80;41.20;20.10;94458.00;;;;10432009;28;45474;-60
2021/10/27 16:17:31;;;;;;;2.75;0.93;;;19.80;41.10;20.00;94445.00;;;;10431708;28;45251;-60
2021/10/27 16:22:32;;;;;;;2.42;1.08;;;19.80;41.10;20.00;94455.00;;;;10416011;28;46701;-61
2021/10/27 16:27:33;;;;;;;1.73;1.08;;;19.70;41.10;20.00;94463.00;;;;10431625;28;45628;-60
2021/10/27 16:32:34;;;;;;;3.47;1.00;;;19.80;41.10;20.10;94462.00;;;;10436101;28;46897;-61
2021/10/27 16:37:35;;;;;;;1.85;0.90;;;19.70;41.00;20.00;94454.00;;;;10456078;28;46431;-60
2021/10/27 16:42:37;;;;;;;2.33;1.00;;;19.80;41.10;20.00;94440.00;;;;10440332;28;47142;-60
2021/10/27 16:47:38;;;;;;;1.73;0.90;;;19.80;41.10;20.00;94449.00;;;;10461921;28;47299;-60
2021/10/27 16:52:43;;;;;;;1.88;1.00;;;19.70;41.00;20.00;94450.00;;;;10462370;28;45198;-60
2021/10/27 16:57:45;;;;;;;1.80;1.13;;;19.70;41.10;20.00;94458.00;;;;10462446;28;45291;-60
2021/10/27 17:02:47;;;;;;;2.65;1.05;;;19.80;41.10;20.00;94452.00;;;;10465793;28;47256;-60
2021/10/27 17:07:47;;;;;;;1.20;0.95;;;19.70;41.00;20.00;94464.00;;;;10457421;28;47430;-60
2021/10/27 17:12:48;;;;;;;1.20;0.90;;;19.70;41.00;20.00;94467.00;;;;10462168;28;46670;-59
2021/10/27 17:17:49;;;;;;;1.88;1.00;;;19.80;41.10;20.00;94462.00;;;;10436778;28;45385;-59
2021/10/27 17:22:57;;;;;;;1.60;1.17;;;19.80;41.10;20.00;94460.00;;;;10469048;28;45186;-59
2021/10/27 17:27:58;;;;;;;2.13;1.10;;;19.70;41.70;20.00;94462.00;;;;10417963;28;47026;-59
2021/10/27 17:32:59;;;;;;;1.58;1.00;;;19.70;41.00;20.00;94441.00;;;;10438124;28;45360;-59
2021/10/27 17:38:00;;;;;;;1.80;1.10;;;19.70;41.00;20.00;94454.00;;;;10436700;28;47232;-59
2021/10/27 17:43:02;;;;;;;2.45;0.90;;;19.70;41.00;20.00;94455.00;;;;10468293;28;46614;-60
2021/10/27 17:48:10;;;;;;;1.38;1.05;;;19.80;41.00;20.00;94470.00;;;;10474423;28;45363;-61
2021/10/27 18:03:27;;;;;;;2.35;1.42;;;19.70;41.00;20.00;94473.00;;;;10471502;28;45892;-61
2021/10/27 18:08:30;;;;;;;2.30;1.30;;;19.70;40.90;19.90;94455.00;;;;10446511;28;47415;-62
2021/10/27 18:13:35;;;;;;;1.58;1.30;;;19.70;41.60;20.00;94460.00;;;;10473551;28;45162;-61
2021/10/27 18:18:54;;;;;;;2.65;1.33;;;19.70;40.90;19.90;94455.00;;;;10463571;28;45180;-61
2021/10/27 18:44:50;;;;;;;2.97;1.67;;;19.70;40.90;20.00;94448.00;;;;10456713;28;45351;-61
2021/10/27 18:49:51;;;;;;;2.63;1.52;;;19.70;40.80;19.90;94440.00;;;;10461396;28;45405;-61
2021/10/27 18:54:55;;;;;;;2.83;1.77;;;19.70;40.90;19.90;94441.00;;;;10464528;28;45409;-62
2021/10/27 19:00:12;;;;;;;3.08;2.08;;;19.70;40.80;19.90;94446.00;;;;10464607;28;45463;-61
2021/10/27 19:15:36;;;;;;;3.17;1.80;;;19.70;40.70;19.90;94447.00;;;;10447454;28;45223;-61
2021/10/27 19:20:36;;;;;;;2.63;1.75;;;19.70;40.70;19.90;94437.00;;;;10417419;28;47839;-61
2021/10/27 19:31:11;;;;;;;2.42;1.73;;;19.60;40.60;19.90;94449.00;;;;10468460;28;45213;-61
2021/10/27 19:36:35;;;;;;;3.35;1.63;;;19.70;40.60;19.90;94436.00;;;;10474381;28;47099;-61
2021/10/27 20:13:28;;;;;;;2.55;1.30;;;19.60;40.30;19.90;94411.00;;;;10452323;28;46352;-61
2021/10/27 20:55:28;;;;;;;1.83;1.02;;;19.50;40.00;19.80;94416.00;;;;10476322;28;45301;-62
2021/10/27 21:00:44;;;;;;;1.38;0.90;;;19.50;40.00;19.80;94414.00;;;;10484686;28;48409;-61
2021/10/27 21:16:26;;;;;;;2.05;0.90;;;19.50;40.10;19.80;94413.00;;;;10481955;28;45675;-62
2021/10/27 21:21:28;;;;;;;1.05;0.90;;;19.50;40.10;19.80;94397.00;;;;10480589;28;45224;-62
2021/10/27 21:26:30;;;;;;;1.00;0.80;;;19.50;40.10;19.80;94409.00;;;;10479997;28;46165;-61
2021/10/27 21:47:29;;;;;;;1.27;0.90;;;19.50;40.20;19.80;94398.00;;;;10476102;28;45167;-61
2021/10/27 21:52:30;;;;;;;1.55;0.77;;;19.50;40.10;19.80;94400.00;;;;10439836;28;45192;-62
2021/10/27 21:57:31;;;;;;;1.15;0.75;;;19.50;40.20;19.80;94403.00;;;;10420352;28;47350;-62
2021/10/27 22:02:31;;;;;;;0.80;0.70;;;19.50;40.10;19.80;94399.00;;;;10437354;28;47200;-62
2021/10/27 22:07:32;;;;;;;1.00;0.80;;;19.50;40.10;19.80;94386.00;;;;10435764;28;48530;-62
2021/10/27 22:12:34;;;;;;;1.05;0.75;;;19.50;40.10;19.80;94389.00;;;;10437594;28;45272;-61
2021/10/27 22:17:35;;;;;;;0.90;0.70;;;19.50;40.10;19.80;94382.00;;;;10437157;28;45349;-60
2021/10/27 22:22:36;;;;;;;0.60;0.60;;;19.50;40.10;19.80;94393.00;;;;10420692;28;48358;-62
2021/10/27 22:27:37;;;;;;;0.90;0.77;;;19.40;40.10;19.80;94384.00;;;;10438002;28;46575;-62
2021/10/27 22:32:39;;;;;;;0.82;0.70;;;19.40;40.10;19.80;94373.00;;;;10438135;28;45553;-61
2021/10/27 22:37:40;;;;;;;0.68;0.68;;;19.50;40.10;19.80;94374.00;;;;10419460;28;47112;-61
2021/10/27 22:42:41;;;;;;;0.88;0.73;;;19.40;40.10;19.80;94367.00;;;;10436454;28;47139;-62
2021/10/27 22:47:41;;;;;;;0.95;0.75;;;19.40;40.10;19.80;94373.00;;;;10436012;28;45312;-62
2021/10/27 22:52:42;;;;;;;0.65;0.55;;;19.40;40.00;19.80;94362.00;;;;10436285;28;47557;-62
2021/10/27 22:57:43;;;;;;;1.02;0.73;;;19.40;40.00;19.70;94358.00;;;;10436091;28;47266;-62
2021/10/27 23:41:17;;;;;;;0.88;0.57;;;19.40;40.10;19.70;94348.00;;;;10479007;28;45104;-61
2021/10/27 23:46:17;;;;;;;0.90;0.75;;;19.40;40.10;19.70;94353.00;;;;10478836;28;47928;-61
2021/10/27 23:51:21;;;;;;;0.95;0.68;;;19.40;40.20;19.70;94351.00;;;;10444574;28;46305;-62
